Time;durP1;ratioP1;P1;durP2;ratioP2;P2;SDS_P1;SDS_P2;PMS_P1;PMS_P2;Temp;Humidity;BMP_temperature;BMP_pressure;BME280_temperature;BME280_humidity;BME280_pressure;Samples;Min_cycle;Max_cycle;Signal;HPM_P1;HPM_P2
2021/11/22 00:01:29;;;;;;;4.78;1.30;;;;;;;5.90;93.83;101522.66;4971897;28;20023;-61
2021/11/22 00:03:55;;;;;;;3.72;1.42;;;;;;;5.95;93.64;101520.25;4973310;28;20022;-57
2021/11/22 00:06:21;;;;;;;6.95;1.95;;;;;;;5.94;93.88;101524.75;4972095;28;20085;-61
2021/11/22 00:08:46;;;;;;;8.43;1.75;;;;;;;5.98;93.81;101525.16;4977434;28;20026;-58
2021/11/22 00:11:12;;;;;;;9.80;2.05;;;;;;;6.02;93.57;101529.06;4979571;28;20467;-60
2021/11/22 00:13:37;;;;;;;6.93;2.33;;;;;;;6.06;93.59;101536.44;4971888;28;20077;-58
2021/11/22 00:16:04;;;;;;;7.00;2.65;;;;;;;6.12;93.24;101536.69;4971489;28;20097;-56
2021/11/22 00:18:30;;;;;;;10.30;3.05;;;;;;;6.12;92.91;101542.81;4973137;28;20523;-57
2021/11/22 00:20:55;;;;;;;11.20;4.07;;;;;;;6.10;93.93;101541.34;4971027;28;20039;-58
2021/11/22 00:23:21;;;;;;;10.20;3.08;;;;;;;6.17;93.16;101545.69;4972420;28;20477;-57
2021/11/22 00:25:46;;;;;;;12.65;3.88;;;;;;;6.17;93.08;101547.53;4975758;28;20053;-56
2021/11/22 00:28:12;;;;;;;10.40;3.35;;;;;;;6.20;92.89;101545.28;4973423;28;20026;-55
2021/11/22 00:30:37;;;;;;;13.68;3.95;;;;;;;6.17;93.12;101548.34;4972458;28;20038;-57
2021/11/22 00:33:03;;;;;;;7.22;3.38;;;;;;;6.18;93.46;101551.84;4973254;28;20026;-58
2021/11/22 00:35:32;;;;;;;10.05;3.72;;;;;;;6.18;93.25;101557.97;4973523;28;20026;-58
2021/11/22 00:38:04;;;;;;;11.90;3.45;;;;;;;6.19;93.27;101556.97;4976299;28;20625;-57
2021/11/22 00:40:30;;;;;;;11.25;4.28;;;;;;;6.23;93.25;101560.03;4972792;28;20107;-57
2021/11/22 00:42:56;;;;;;;12.43;3.90;;;;;;;6.26;93.14;101571.09;4975703;28;20035;-56
2021/11/22 00:45:22;;;;;;;14.10;4.15;;;;;;;6.26;92.92;101565.78;4973966;28;20034;-57
2021/11/22 00:47:47;;;;;;;10.95;4.20;;;;;;;6.27;93.00;101571.91;4974376;28;20034;-57
2021/11/22 00:50:14;;;;;;;14.93;4.50;;;;;;;6.30;93.16;101572.38;4974633;28;20018;-56
2021/11/22 00:52:41;;;;;;;13.75;4.80;;;;;;;6.32;92.55;101575.63;4975291;28;20556;-57
2021/11/22 00:55:06;;;;;;;12.82;4.30;;;;;;;6.29;93.07;101584.03;4976710;28;20085;-56
2021/11/22 00:57:32;;;;;;;13.98;5.97;;;;;;;6.25;92.58;101592.59;4979873;28;20022;-57
2021/11/22 00:59:59;;;;;;;15.63;5.20;;;;;;;6.22;92.46;101593.81;4981265;28;20374;-57
2021/11/22 01:02:24;;;;;;;12.55;5.13;;;;;;;6.17;92.72;101603.41;4979121;28;20038;-57
2021/11/22 01:04:50;;;;;;;15.65;5.70;;;;;;;6.09;92.69;101604.38;4978797;28;20057;-57
2021/11/22 01:07:15;;;;;;;17.42;5.97;;;;;;;5.97;92.77;101614.78;4984885;28;20116;-57
2021/11/22 01:09:41;;;;;;;15.18;5.47;;;;;;;5.94;92.86;101617.03;4980147;28;20039;-57
2021/11/22 01:12:07;;;;;;;17.25;5.80;;;;;;;5.89;93.90;101620.22;4979517;28;20045;-57
2021/11/22 01:14:34;;;;;;;17.23;4.65;;;;;;;5.94;93.45;101622.34;4978905;28;21325;-57
2021/11/22 01:17:00;;;;;;;13.40;4.95;;;;;;;5.90;93.25;101635.19;4979378;28;20069;-57
2021/11/22 01:19:26;;;;;;;11.65;4.82;;;;;;;5.95;93.32;101634.63;4979033;28;20532;-58
2021/11/22 01:21:51;;;;;;;9.55;3.60;;;;;;;5.99;93.25;101649.16;4978484;28;20473;-56
2021/11/22 01:24:17;;;;;;;10.05;3.25;;;;;;;6.01;93.32;101642.63;4979608;28;20350;-56
2021/11/22 01:26:42;;;;;;;5.35;2.53;;;;;;;6.02;92.91;101643.44;4984109;28;20137;-57
2021/11/22 01:29:08;;;;;;;4.88;2.33;;;;;;;6.05;92.15;101648.38;4981567;28;20030;-57
2021/11/22 01:31:33;;;;;;;5.78;2.20;;;;;;;6.01;92.66;101647.13;4977255;28;20026;-56
2021/11/22 01:33:59;;;;;;;4.32;1.92;;;;;;;6.05;92.04;101643.06;4978708;28;20028;-55
2021/11/22 01:36:24;;;;;;;5.25;1.80;;;;;;;6.00;92.08;101650.81;4979490;28;20410;-56
2021/11/22 01:38:50;;;;;;;4.20;1.50;;;;;;;6.01;92.08;101668.41;4977662;28;20046;-58
2021/11/22 01:41:16;;;;;;;4.32;1.30;;;;;;;6.01;91.84;101668.41;4976771;28;20034;-57
2021/11/22 01:43:42;;;;;;;1.50;1.05;;;;;;;5.95;91.58;101671.88;4977622;28;20116;-57
2021/11/22 01:46:15;;;;;;;2.78;1.10;;;;;;;5.95;91.42;101685.97;4978909;28;20082;-57
2021/11/22 01:48:41;;;;;;;3.65;1.00;;;;;;;5.99;91.81;101686.41;4979611;28;20489;-56
2021/11/22 01:51:06;;;;;;;2.60;1.10;;;;;;;6.01;91.55;101689.69;4976871;28;20049;-56
2021/11/22 01:53:32;;;;;;;3.97;1.65;;;;;;;6.03;91.06;101692.97;4975413;28;20026;-56
2021/11/22 01:55:57;;;;;;;6.93;1.70;;;;;;;5.99;91.17;101697.88;4978169;28;20476;-56
2021/11/22 01:58:23;;;;;;;7.38;2.13;;;;;;;5.99;91.37;101702.38;4976315;28;20459;-58
2021/11/22 02:00:51;;;;;;;5.03;1.83;;;;;;;5.99;90.80;101708.50;4978298;28;20109;-56
2021/11/22 02:03:18;;;;;;;3.83;2.00;;;;;;;5.97;90.76;101710.53;4976725;28;20034;-57
2021/11/22 02:05:45;;;;;;;6.50;2.50;;;;;;;5.94;91.00;101710.94;4978552;28;20022;-57
2021/11/22 02:08:13;;;;;;;3.45;2.35;;;;;;;5.92;90.86;101717.44;4976323;28;20247;-57
2021/11/22 02:10:39;;;;;;;6.15;2.25;;;;;;;5.91;90.48;101718.47;4981655;28;20262;-57
2021/11/22 02:13:05;;;;;;;6.80;2.30;;;;;;;5.86;90.72;101716.34;4977315;28;20057;-56
2021/11/22 02:15:32;;;;;;;8.98;2.58;;;;;;;5.87;90.94;101719.84;4977365;28;20113;-57
2021/11/22 02:17:58;;;;;;;7.50;4.05;;;;;;;5.90;90.73;101722.97;4978623;28;20555;-57
2021/11/22 02:20:27;;;;;;;7.03;3.13;;;;;;;5.90;90.68;101722.97;4985756;28;20444;-57
2021/11/22 02:23:01;;;;;;;7.30;3.05;;;;;;;5.91;90.86;101729.91;4985101;28;20053;-57
2021/11/22 02:25:29;;;;;;;9.20;3.85;;;;;;;5.89;90.19;101723.94;4982184;28;20030;-56
2021/11/22 02:27:55;;;;;;;11.80;4.20;;;;;;;5.83;90.24;101719.41;4986490;28;20417;-58
2021/11/22 02:30:29;;;;;;;13.07;4.07;;;;;;;5.73;90.64;101727.69;4979347;28;20570;-57
2021/11/22 02:33:00;;;;;;;16.63;4.67;;;;;;;5.70;90.77;101730.75;4984420;28;20396;-58
2021/11/22 02:35:27;;;;;;;13.85;5.10;;;;;;;5.70;90.73;101735.25;4977460;28;21406;-56
2021/11/22 02:37:53;;;;;;;17.10;5.32;;;;;;;5.61;90.66;101739.06;4977773;28;20022;-56
2021/11/22 02:40:19;;;;;;;19.42;5.93;;;;;;;5.51;90.54;101731.41;4979091;28;20061;-57
2021/11/22 02:42:45;;;;;;;16.83;5.72;;;;;;;5.44;90.98;101734.00;4978884;28;20121;-56
2021/11/22 02:45:18;;;;;;;17.65;6.40;;;;;;;5.34;90.78;101740.63;4975256;28;20026;-57
2021/11/22 02:47:45;;;;;;;17.30;5.63;;;;;;;5.31;91.21;101739.19;4976469;28;20276;-57
2021/11/22 02:50:12;;;;;;;13.43;5.63;;;;;;;5.29;91.83;101746.53;4978719;28;20023;-55
2021/11/22 02:52:42;;;;;;;16.80;4.90;;;;;;;5.35;92.05;101744.94;4973430;28;20064;-56
2021/11/22 02:55:11;;;;;;;14.43;4.97;;;;;;;5.42;91.91;101748.50;4975628;28;20054;-56
2021/11/22 02:57:38;;;;;;;13.07;4.47;;;;;;;5.47;91.31;101748.75;4976920;28;20109;-57
2021/11/22 03:00:16;;;;;;;14.73;4.28;;;;;;;5.50;91.05;101750.19;4977919;28;20022;-57
2021/11/22 03:02:42;;;;;;;11.02;4.03;;;;;;;5.48;90.90;101755.72;4980636;28;20435;-55
2021/11/22 03:05:08;;;;;;;12.38;4.03;;;;;;;5.43;90.62;101768.75;4978088;28;20061;-55
2021/11/22 03:07:34;;;;;;;13.82;3.92;;;;;;;5.44;91.10;101768.56;4976337;28;20081;-57
2021/11/22 03:10:00;;;;;;;11.75;3.95;;;;;;;5.46;90.83;101771.03;4976219;28;20065;-57
2021/11/22 03:12:26;;;;;;;11.70;3.90;;;;;;;5.36;90.76;101776.63;4977541;28;20065;-57
2021/11/22 03:14:52;;;;;;;10.23;4.07;;;;;;;5.43;90.57;101782.03;4982661;28;20085;-57
2021/11/22 03:17:18;;;;;;;15.43;5.70;;;;;;;5.38;90.67;101787.91;4983870;28;20400;-56
2021/11/22 03:19:44;;;;;;;20.08;7.38;;;;;;;5.40;90.50;101793.06;4984222;28;20034;-57
2021/11/22 03:22:10;;;;;;;25.70;9.40;;;;;;;5.32;90.61;101793.16;4981575;28;20031;-56
2021/11/22 03:24:35;;;;;;;25.83;11.57;;;;;;;5.29;90.65;101796.19;4976099;28;20165;-57
2021/11/22 03:27:02;;;;;;;19.92;9.80;;;;;;;5.27;91.02;101799.03;4977293;28;20121;-55
2021/11/22 03:29:28;;;;;;;23.65;8.52;;;;;;;5.29;91.08;101802.31;4974401;28;20030;-55
2021/11/22 03:31:53;;;;;;;23.42;10.45;;;;;;;5.33;91.12;101805.44;4978910;28;20041;-57
2021/11/22 03:34:19;;;;;;;20.90;8.43;;;;;;;5.34;91.24;101823.03;4977937;28;20031;-56
2021/11/22 03:36:45;;;;;;;14.95;6.40;;;;;;;5.35;91.11;101820.16;4977322;28;20026;-57
2021/11/22 03:39:17;;;;;;;8.98;4.20;;;;;;;5.39;90.79;101820.66;4976444;28;20033;-58
2021/11/22 03:41:43;;;;;;;10.75;3.83;;;;;;;5.44;90.46;101826.22;4977567;28;20502;-57
2021/11/22 03:44:14;;;;;;;5.63;3.15;;;;;;;5.43;90.53;101827.22;4978118;28;20022;-56
2021/11/22 03:46:44;;;;;;;6.78;2.90;;;;;;;5.49;90.59;101825.66;4975141;28;20088;-57
2021/11/22 03:49:10;;;;;;;11.15;5.05;;;;;;;5.46;90.61;101835.63;4975849;28;20037;-57
2021/11/22 03:51:36;;;;;;;12.40;5.70;;;;;;;5.50;90.55;101835.25;4976456;28;20586;-58
2021/11/22 03:54:02;;;;;;;8.65;5.22;;;;;;;5.45;90.24;101839.31;4981797;28;20042;-58
2021/11/22 03:56:27;;;;;;;7.57;2.70;;;;;;;5.48;90.08;101838.09;4976413;28;20421;-56
2021/11/22 03:58:53;;;;;;;8.20;3.80;;;;;;;5.47;90.19;101847.91;4975102;28;20037;-58
2021/11/22 04:01:18;;;;;;;6.80;3.00;;;;;;;5.48;90.37;101859.38;4978298;28;20033;-56
2021/11/22 04:03:44;;;;;;;7.20;3.25;;;;;;;5.49;90.08;101855.69;4977875;28;20037;-57
2021/11/22 04:06:10;;;;;;;9.30;3.92;;;;;;;5.49;89.84;101860.19;4975653;28;20038;-55
2021/11/22 04:08:36;;;;;;;5.70;3.13;;;;;;;5.42;90.08;101866.28;4975585;28;20037;-56
2021/11/22 04:11:02;;;;;;;4.95;2.55;;;;;;;5.42;89.97;101865.44;4977817;28;20026;-55
2021/11/22 04:13:28;;;;;;;6.65;2.97;;;;;;;5.37;90.15;101865.16;4975219;28;20034;-55
2021/11/22 04:15:53;;;;;;;5.53;2.72;;;;;;;5.35;90.02;101869.84;4979349;28;20524;-57
2021/11/22 04:18:19;;;;;;;3.85;1.73;;;;;;;5.24;90.12;101883.63;4977304;28;20055;-56
2021/11/22 04:20:44;;;;;;;1.10;1.00;;;;;;;5.16;89.94;101882.69;4976255;28;20137;-56
2021/11/22 04:23:10;;;;;;;2.40;1.35;;;;;;;5.06;90.36;101892.78;4976036;28;20022;-55
2021/11/22 04:25:37;;;;;;;2.63;1.08;;;;;;;4.97;91.00;101896.53;4980336;28;20038;-57
2021/11/22 04:28:03;;;;;;;1.95;0.80;;;;;;;4.99;91.18;101901.66;4974250;28;20031;-57
2021/11/22 04:30:31;;;;;;;2.47;1.10;;;;;;;4.92;91.31;101906.88;4976472;28;20042;-57
2021/11/22 04:32:57;;;;;;;2.67;1.20;;;;;;;4.86;91.46;101910.28;4975903;28;20772;-57
2021/11/22 04:35:23;;;;;;;2.08;0.98;;;;;;;4.81;91.85;101909.97;4978044;28;20030;-57
2021/11/22 04:37:48;;;;;;;4.45;0.77;;;;;;;4.72;91.85;101911.09;4978940;28;20515;-57
2021/11/22 04:40:15;;;;;;;4.95;1.45;;;;;;;4.69;91.77;101914.94;4977146;28;20117;-57
2021/11/22 04:42:45;;;;;;;2.78;0.52;;;;;;;4.63;92.21;101914.81;4979357;28;20148;-55
2021/11/22 04:45:12;;;;;;;2.05;0.60;;;;;;;4.54;92.10;101914.91;4979872;28;20404;-57
2021/11/22 04:47:37;;;;;;;3.13;0.95;;;;;;;4.49;92.73;101925.22;4978556;28;20080;-57
2021/11/22 04:50:04;;;;;;;1.67;0.65;;;;;;;4.44;93.16;101921.44;4980665;28;20026;-57
2021/11/22 04:52:29;;;;;;;3.03;0.90;;;;;;;4.47;93.40;101935.19;4979810;28;20049;-58
2021/11/22 04:54:55;;;;;;;1.20;0.63;;;;;;;4.48;93.00;101939.47;4979317;28;20590;-56
2021/11/22 04:57:21;;;;;;;3.50;0.68;;;;;;;4.44;93.28;101940.84;4979081;28;20054;-58
2021/11/22 04:59:46;;;;;;;0.98;0.57;;;;;;;4.46;93.02;101938.84;4979846;28;20544;-57
2021/11/22 05:02:12;;;;;;;0.88;0.40;;;;;;;4.45;93.25;101947.81;4980978;28;20530;-55
2021/11/22 05:04:38;;;;;;;1.75;0.80;;;;;;;4.42;93.03;101947.34;4979089;28;20503;-57
2021/11/22 05:07:05;;;;;;;1.10;0.52;;;;;;;4.38;93.10;101946.88;4982127;28;20029;-56
2021/11/22 05:09:31;;;;;;;1.17;0.60;;;;;;;4.33;92.62;101951.06;4977403;28;20049;-56
2021/11/22 05:11:57;;;;;;;0.80;0.40;;;;;;;4.31;92.78;101956.56;4980900;28;20026;-57
2021/11/22 05:14:24;;;;;;;2.03;0.50;;;;;;;4.31;92.74;101961.00;4977993;28;20030;-58
2021/11/22 05:16:49;;;;;;;1.67;0.50;;;;;;;4.25;92.35;101960.72;4977678;28;20034;-57
2021/11/22 05:19:15;;;;;;;1.08;0.40;;;;;;;4.25;92.44;101962.56;4976649;28;20022;-57
2021/11/22 05:21:41;;;;;;;0.90;0.55;;;;;;;4.13;92.17;101953.34;4977378;28;20041;-57
2021/11/22 05:24:08;;;;;;;0.60;0.40;;;;;;;4.06;92.43;101953.22;4978734;28;20102;-57
2021/11/22 05:26:33;;;;;;;1.98;1.08;;;;;;;4.04;92.62;101955.22;4979161;28;20365;-57
2021/11/22 05:29:00;;;;;;;2.92;0.73;;;;;;;4.00;92.46;101956.59;4979969;28;20056;-57
2021/11/22 05:31:25;;;;;;;1.13;0.47;;;;;;;4.00;92.46;101971.69;4975293;28;20158;-57
2021/11/22 05:33:52;;;;;;;0.88;0.50;;;;;;;3.97;92.66;101974.69;4975743;28;20030;-56
2021/11/22 05:36:18;;;;;;;0.68;0.45;;;;;;;3.97;92.71;101975.50;4985378;28;20047;-57
2021/11/22 05:38:44;;;;;;;1.65;0.50;;;;;;;3.97;92.72;101986.13;4984595;28;20457;-57
2021/11/22 05:41:10;;;;;;;1.17;0.45;;;;;;;4.04;92.52;101986.25;4982323;28;20026;-57
2021/11/22 05:43:36;;;;;;;1.48;0.70;;;;;;;4.05;92.69;101988.72;4985447;28;20033;-58
2021/11/22 05:46:03;;;;;;;2.50;0.70;;;;;;;4.04;92.30;101991.53;4985098;28;20485;-56
2021/11/22 05:48:29;;;;;;;4.00;0.80;;;;;;;4.03;92.00;101997.84;4978117;28;20030;-58
2021/11/22 05:50:55;;;;;;;1.15;0.50;;;;;;;3.95;91.49;102001.38;4981563;28;20056;-57
2021/11/22 05:53:22;;;;;;;0.57;0.47;;;;;;;3.77;91.25;101998.97;4980088;28;20034;-57
2021/11/22 05:55:52;;;;;;;2.88;1.00;;;;;;;3.59;91.11;102004.53;4980662;28;20141;-57
2021/11/22 05:58:19;;;;;;;1.00;0.50;;;;;;;3.43;91.52;102012.53;4977280;28;20481;-57
2021/11/22 06:00:44;;;;;;;2.60;0.60;;;;;;;3.24;92.09;102013.72;4976190;28;20101;-57
2021/11/22 06:03:11;;;;;;;1.20;0.82;;;;;;;3.12;92.40;102017.72;4966289;28;20030;-56
2021/11/22 06:05:36;;;;;;;1.95;0.95;;;;;;;3.06;92.54;102018.41;4974160;28;20034;-57
2021/11/22 06:08:02;;;;;;;1.38;0.50;;;;;;;2.96;92.81;102028.31;4977454;28;20303;-56
2021/11/22 06:10:28;;;;;;;0.98;0.70;;;;;;;2.84;93.01;102021.69;4981367;28;20446;-55
2021/11/22 06:12:54;;;;;;;3.78;1.27;;;;;;;2.83;93.25;102035.94;4984385;28;20161;-58
2021/11/22 06:15:23;;;;;;;2.58;0.80;;;;;;;2.84;93.68;102032.28;4984503;28;20026;-59
2021/11/22 06:17:49;;;;;;;1.02;0.70;;;;;;;2.74;93.66;102029.81;4985758;28;20026;-56
2021/11/22 06:20:14;;;;;;;2.17;0.90;;;;;;;2.66;93.83;102038.56;4986887;28;20093;-60
2021/11/22 06:22:40;;;;;;;1.67;0.88;;;;;;;2.67;93.96;102040.22;4986042;28;20635;-56
2021/11/22 06:25:06;;;;;;;2.63;0.75;;;;;;;2.65;93.98;102047.50;4984134;28;20137;-58
2021/11/22 06:27:32;;;;;;;1.45;0.60;;;;;;;2.59;94.16;102045.50;4979070;28;20037;-60
2021/11/22 06:29:58;;;;;;;2.15;0.70;;;;;;;2.63;93.87;102041.53;4977454;28;20030;-57
2021/11/22 06:32:28;;;;;;;1.65;0.50;;;;;;;2.70;94.73;102050.50;4978245;28;20072;-55
2021/11/22 06:34:54;;;;;;;0.90;0.52;;;;;;;2.65;94.53;102063.38;4980487;28;20034;-58
2021/11/22 06:37:21;;;;;;;2.97;0.70;;;;;;;2.67;94.20;102069.31;4987297;28;20440;-60
2021/11/22 06:39:47;;;;;;;0.60;0.50;;;;;;;2.71;94.39;102073.31;4982531;28;20117;-57
2021/11/22 06:42:13;;;;;;;2.67;0.70;;;;;;;2.81;94.19;102077.63;4989637;28;20448;-58
2021/11/22 06:44:39;;;;;;;1.13;0.38;;;;;;;2.84;94.22;102078.09;4983849;28;20045;-61
2021/11/22 06:47:04;;;;;;;4.68;0.88;;;;;;;2.89;93.94;102090.88;4987590;28;20030;-57
2021/11/22 06:49:30;;;;;;;1.05;0.65;;;;;;;2.84;93.43;102083.41;4987473;28;20080;-57
2021/11/22 06:51:57;;;;;;;1.08;0.60;;;;;;;2.80;93.08;102095.31;4982398;28;20116;-60
2021/11/22 06:54:22;;;;;;;1.35;0.50;;;;;;;2.86;93.33;102099.13;4984163;28;20061;-59
2021/11/22 06:56:48;;;;;;;1.13;0.60;;;;;;;2.86;93.22;102097.31;4985637;28;20432;-57
2021/11/22 06:59:13;;;;;;;2.25;0.70;;;;;;;2.79;92.79;102111.38;4984309;28;20467;-57
2021/11/22 07:01:39;;;;;;;0.98;0.60;;;;;;;2.75;92.38;102115.34;4982966;28;20030;-59
2021/11/22 07:04:05;;;;;;;2.67;0.93;;;;;;;2.67;92.49;102119.59;4988400;28;20041;-55
2021/11/22 07:06:30;;;;;;;1.60;0.60;;;;;;;2.73;92.66;102124.28;4985614;28;20085;-58
2021/11/22 07:08:56;;;;;;;1.27;0.30;;;;;;;2.77;92.68;102134.53;4986235;28;20140;-57
2021/11/22 07:11:21;;;;;;;2.13;0.80;;;;;;;2.70;92.38;102140.47;4985227;28;20400;-58
2021/11/22 07:13:47;;;;;;;0.68;0.32;;;;;;;2.73;92.62;102139.31;5003264;28;20121;-57
2021/11/22 07:16:15;;;;;;;0.68;0.45;;;;;;;2.65;92.19;102140.13;4987294;28;20469;-57
2021/11/22 07:18:41;;;;;;;1.30;0.73;;;;;;;2.61;92.14;102146.72;4987503;28;20026;-57
2021/11/22 07:21:06;;;;;;;0.63;0.63;;;;;;;2.58;92.11;102157.63;4985323;28;20037;-60
2021/11/22 07:23:32;;;;;;;1.00;0.60;;;;;;;2.58;92.35;102154.16;4988316;28;20026;-58
2021/11/22 07:25:57;;;;;;;0.73;0.60;;;;;;;2.64;92.38;102156.16;4985390;28;20030;-60
2021/11/22 07:28:25;;;;;;;0.60;0.40;;;;;;;2.73;92.91;102158.69;4983672;28;20033;-57
2021/11/22 07:30:50;;;;;;;2.03;0.60;;;;;;;2.91;92.91;102168.31;4985682;28;20469;-61
2021/11/22 07:33:16;;;;;;;1.65;0.60;;;;;;;3.05;92.64;102170.28;4988390;28;20049;-55
2021/11/22 07:35:42;;;;;;;1.00;0.55;;;;;;;3.14;92.12;102173.78;4984851;28;20045;-60
2021/11/22 07:38:08;;;;;;;0.50;0.50;;;;;;;3.13;90.87;102178.25;4986096;28;20026;-58
2021/11/22 07:40:34;;;;;;;1.17;0.55;;;;;;;3.14;90.02;102190.50;4987736;28;20030;-62
2021/11/22 07:43:00;;;;;;;1.67;0.75;;;;;;;3.34;90.37;102188.38;4984095;28;20053;-56
2021/11/22 07:45:27;;;;;;;1.10;0.70;;;;;;;3.42;89.35;102193.69;4983680;28;20026;-56
2021/11/22 07:47:53;;;;;;;1.95;0.60;;;;;;;3.48;88.90;102193.00;4984492;28;20205;-60
2021/11/22 07:50:21;;;;;;;1.55;0.40;;;;;;;3.58;89.06;102192.81;4987636;28;20022;-61
2021/11/22 07:52:46;;;;;;;0.60;0.60;;;;;;;3.58;88.51;102203.44;4984674;28;20038;-57
2021/11/22 07:55:12;;;;;;;1.45;0.73;;;;;;;3.65;88.63;102207.09;4990207;28;20030;-57
2021/11/22 07:57:38;;;;;;;0.93;0.70;;;;;;;3.73;88.48;102207.06;4984094;28;20030;-59
2021/11/22 08:00:09;;;;;;;0.60;0.55;;;;;;;3.82;88.01;102211.38;4986697;28;20079;-61
2021/11/22 08:02:35;;;;;;;0.77;0.50;;;;;;;3.95;87.86;102205.56;4984390;28;20039;-61
2021/11/22 08:05:05;;;;;;;2.10;0.63;;;;;;;4.02;87.44;102214.50;4988455;28;20034;-55
2021/11/22 08:07:32;;;;;;;0.70;0.68;;;;;;;4.02;86.78;102217.16;4987056;28;20026;-60
2021/11/22 08:10:00;;;;;;;1.60;0.82;;;;;;;4.07;86.31;102225.41;4985176;28;20030;-56
2021/11/22 08:12:27;;;;;;;1.52;0.80;;;;;;;4.10;86.60;102227.72;4991704;28;20060;-61
2021/11/22 08:15:02;;;;;;;1.35;0.50;;;;;;;3.99;86.00;102227.28;4987894;28;20354;-57
2021/11/22 08:17:29;;;;;;;0.73;0.50;;;;;;;4.05;86.23;102242.50;4990257;28;20038;-57
2021/11/22 08:19:57;;;;;;;2.67;0.82;;;;;;;4.09;85.85;102238.50;4987299;28;20048;-58
2021/11/22 08:22:23;;;;;;;1.90;0.60;;;;;;;4.05;86.08;102231.88;4991675;28;20505;-57
2021/11/22 08:24:53;;;;;;;2.78;0.63;;;;;;;3.99;85.56;102243.19;4987417;28;20392;-56
2021/11/22 08:27:25;;;;;;;0.93;0.50;;;;;;;3.94;86.03;102246.31;4988814;28;20022;-57
2021/11/22 08:29:51;;;;;;;1.35;0.70;;;;;;;3.88;86.21;102244.34;4989028;28;20026;-59
2021/11/22 08:32:18;;;;;;;2.97;1.20;;;;;;;3.83;86.05;102244.84;4995784;28;20022;-55
2021/11/22 08:34:44;;;;;;;2.78;0.82;;;;;;;3.75;86.03;102259.91;4990004;28;20041;-61
2021/11/22 08:37:10;;;;;;;2.92;1.10;;;;;;;3.67;86.39;102258.09;4986190;28;20026;-58
2021/11/22 08:39:36;;;;;;;2.10;1.30;;;;;;;3.71;86.81;102262.06;4990249;28;20096;-59
2021/11/22 08:42:02;;;;;;;1.85;1.13;;;;;;;3.70;86.47;102260.41;4986038;28;20038;-58
2021/11/22 08:44:29;;;;;;;1.98;1.10;;;;;;;3.90;87.22;102264.38;4992659;28;20112;-57
2021/11/22 08:46:55;;;;;;;1.98;1.35;;;;;;;4.06;86.44;102266.19;4985699;28;20077;-59
2021/11/22 08:49:21;;;;;;;2.13;1.00;;;;;;;4.24;86.25;102268.66;4990839;28;20057;-57
2021/11/22 08:51:46;;;;;;;12.60;1.70;;;;;;;4.44;85.87;102266.44;4986384;28;20476;-60
2021/11/22 08:54:13;;;;;;;2.58;1.50;;;;;;;4.60;85.19;102268.22;4992660;28;20178;-56
2021/11/22 08:56:38;;;;;;;3.38;1.88;;;;;;;4.63;84.21;102273.19;4987958;28;20018;-58
2021/11/22 08:59:04;;;;;;;3.53;2.17;;;;;;;4.68;83.78;102263.72;4989796;28;20056;-58
2021/11/22 09:01:30;;;;;;;2.83;1.20;;;;;;;4.83;84.03;102277.91;4989822;28;20018;-60
2021/11/22 09:03:57;;;;;;;1.50;1.20;;;;;;;4.98;83.74;102269.22;4990619;28;20377;-55
2021/11/22 09:06:22;;;;;;;2.30;1.00;;;;;;;5.05;82.96;102276.34;4989825;28;20026;-61
2021/11/22 09:08:49;;;;;;;1.20;0.80;;;;;;;5.15;83.24;102276.91;4988360;28;20274;-55
2021/11/22 09:11:15;;;;;;;1.50;0.80;;;;;;;5.14;81.83;102282.41;4990594;28;20384;-58
2021/11/22 09:13:42;;;;;;;0.80;0.60;;;;;;;5.24;82.05;102284.88;4986377;28;20170;-57
2021/11/22 09:16:08;;;;;;;1.77;0.80;;;;;;;5.30;81.82;102287.63;4987002;28;20513;-57
2021/11/22 09:18:34;;;;;;;1.20;0.80;;;;;;;5.38;81.53;102284.09;4987532;28;20034;-57
2021/11/22 09:21:00;;;;;;;0.40;0.40;;;;;;;5.58;81.80;102284.47;4989610;28;20031;-56
2021/11/22 09:23:26;;;;;;;1.85;0.68;;;;;;;5.65;81.39;102290.72;4986802;28;20117;-58
2021/11/22 09:25:52;;;;;;;1.15;0.80;;;;;;;5.69;80.90;102286.69;4990994;28;20125;-58
2021/11/22 09:28:18;;;;;;;1.10;1.00;;;;;;;5.79;80.69;102286.47;4987693;28;20053;-57
2021/11/22 09:30:45;;;;;;;2.08;1.65;;;;;;;5.96;80.31;102293.34;4987760;28;20362;-58
2021/11/22 09:33:11;;;;;;;3.80;1.38;;;;;;;5.97;79.23;102297.66;4988528;28;20034;-57
2021/11/22 09:35:37;;;;;;;2.80;0.60;;;;;;;6.06;78.87;102299.22;4990320;28;20056;-57
2021/11/22 09:38:04;;;;;;;1.48;0.90;;;;;;;6.19;79.02;102291.44;4987445;28;20042;-55
2021/11/22 09:40:29;;;;;;;0.70;0.65;;;;;;;6.35;78.40;102288.63;4987383;28;20030;-55
2021/11/22 09:42:56;;;;;;;1.30;0.68;;;;;;;6.59;76.84;102300.00;4987376;28;20500;-59
2021/11/22 09:45:22;;;;;;;0.82;0.50;;;;;;;6.79;75.15;102302.94;4989214;28;20161;-60
2021/11/22 09:47:48;;;;;;;0.43;0.43;;;;;;;7.04;74.41;102306.16;4989102;28;20031;-61
2021/11/22 09:50:13;;;;;;;0.50;0.40;;;;;;;7.26;73.78;102302.50;4987006;28;20041;-57
2021/11/22 09:52:39;;;;;;;0.65;0.30;;;;;;;7.36;72.93;102299.53;4985939;28;20172;-57
2021/11/22 09:55:05;;;;;;;1.23;0.50;;;;;;;7.35;71.54;102312.03;4989115;28;20377;-60
2021/11/22 09:57:30;;;;;;;0.30;0.30;;;;;;;7.37;70.81;102310.03;4988804;28;20301;-58
2021/11/22 09:59:56;;;;;;;2.50;0.57;;;;;;;7.37;70.40;102310.03;4985194;28;20069;-57
2021/11/22 10:02:51;;;;;;;0.63;0.40;;;;;;;7.21;68.91;102312.91;4989495;28;20245;-60
2021/11/22 10:05:29;;;;;;;1.35;0.60;;;;;;;7.17;69.92;102311.63;4985892;28;20041;-59
2021/11/22 10:08:05;;;;;;;1.23;0.70;;;;;;;7.12;70.49;102311.34;4986278;28;20038;-55
2021/11/22 10:10:33;;;;;;;1.25;0.70;;;;;;;7.15;70.57;102317.13;4987770;28;20037;-58
2021/11/22 10:13:00;;;;;;;1.27;1.10;;;;;;;7.01;71.19;102311.84;4985139;28;20030;-56
2021/11/22 10:15:30;;;;;;;0.95;0.73;;;;;;;7.01;71.40;102318.00;4991088;28;20456;-60
2021/11/22 10:17:55;;;;;;;1.00;0.57;;;;;;;7.02;71.31;102306.34;4986071;28;20437;-59
2021/11/22 10:20:21;;;;;;;1.25;0.70;;;;;;;7.08;70.77;102310.09;4989452;28;20054;-58
2021/11/22 10:23:04;;;;;;;1.88;0.63;;;;;;;7.03;70.43;102312.50;4985242;28;20030;-57
2021/11/22 10:25:38;;;;;;;2.42;0.57;;;;;;;7.01;68.04;102319.84;4987868;28;20190;-55
2021/11/22 10:28:13;;;;;;;0.40;0.40;;;;;;;7.13;68.41;102318.34;4986352;28;20120;-55
2021/11/22 10:30:51;;;;;;;0.40;0.40;;;;;;;7.38;68.14;102310.84;4984793;28;20488;-58
2021/11/22 10:33:21;;;;;;;0.47;0.47;;;;;;;7.52;67.01;102321.44;4990470;28;20113;-59
2021/11/22 10:35:49;;;;;;;0.98;0.68;;;;;;;7.73;67.86;102319.81;4985889;28;20037;-60
2021/11/22 10:38:18;;;;;;;0.50;0.50;;;;;;;7.51;66.68;102322.47;4986769;28;20029;-61
2021/11/22 10:40:55;;;;;;;0.47;0.40;;;;;;;7.56;67.27;102319.25;4984601;28;20116;-62
2021/11/22 10:43:21;;;;;;;0.50;0.45;;;;;;;7.24;65.41;102325.88;4987904;28;20441;-58
2021/11/22 10:45:50;;;;;;;1.65;0.50;;;;;;;7.08;65.34;102326.91;4985276;28;20038;-60
2021/11/22 10:48:28;;;;;;;0.93;0.73;;;;;;;6.86;65.03;102328.69;4986823;28;20062;-63
2021/11/22 10:51:21;;;;;;;1.77;0.95;;;;;;;6.92;65.75;102333.25;4985225;28;20026;-55
2021/11/22 10:53:52;;;;;;;0.60;0.50;;;;;;;6.87;65.91;102341.00;4985204;28;20269;-58
2021/11/22 10:56:21;;;;;;;0.40;0.40;;;;;;;7.01;66.41;102338.50;4985129;28;20114;-59
2021/11/22 10:58:54;;;;;;;1.60;0.40;;;;;;;7.06;66.59;102334.25;4984000;28;20045;-58
2021/11/22 11:01:32;;;;;;;0.68;0.50;;;;;;;6.87;64.97;102330.31;4986595;28;20477;-59
2021/11/22 11:04:07;;;;;;;0.52;0.45;;;;;;;6.82;65.27;102334.53;4985237;28;20058;-55
2021/11/22 11:06:40;;;;;;;;;;;;;;;6.54;64.82;102337.84;4987821;28;20121;-58
2021/11/22 11:09:09;;;;;;;1.75;0.63;;;;;;;6.51;65.65;102335.56;4987111;28;20008;-60
2021/11/22 11:11:35;;;;;;;1.88;0.63;;;;;;;6.33;65.07;102333.25;4985293;28;20026;-59
2021/11/22 11:14:06;;;;;;;0.73;0.60;;;;;;;6.51;65.92;102345.38;4987805;28;20072;-60
2021/11/22 11:16:32;;;;;;;0.57;0.43;;;;;;;7.07;62.59;102351.06;4986168;28;20026;-58
2021/11/22 11:19:01;;;;;;;3.13;0.52;;;;;;;6.56;60.32;102353.66;4987317;28;20033;-55
2021/11/22 11:21:29;;;;;;;0.52;0.50;;;;;;;6.19;61.49;102358.00;4984244;28;20023;-60
2021/11/22 11:23:57;;;;;;;0.28;0.28;;;;;;;6.21;60.42;102358.63;4988592;28;20474;-56
2021/11/22 11:26:24;;;;;;;0.70;0.70;;;;;;;8.30;55.50;102358.91;4984417;28;20026;-57
2021/11/22 11:28:50;;;;;;;0.35;0.25;;;;;;;8.91;52.63;102364.47;4986352;28;20217;-62
2021/11/22 11:31:16;;;;;;;0.60;0.60;;;;;;;8.42;54.01;102363.53;4987050;28;20058;-63